Time;durP1;ratioP1;P1;durP2;ratioP2;P2;SDS_P1;SDS_P2;PMS_P1;PMS_P2;Temp;Humidity;BMP_temperature;BMP_pressure;BME280_temperature;BME280_humidity;BME280_pressure;Samples;Min_cycle;Max_cycle;Signal;HPM_P1;HPM_P2
2023/08/08 00:01:47;;;;;;;1.92;0.80;;;15.90;99.90;;;16.07;100.00;100978.59;5202169;28;20414;-54
2023/08/08 00:04:19;;;;;;;1.20;0.90;;;15.80;99.90;;;16.08;100.00;100980.34;5202099;28;20065;-54
2023/08/08 00:06:52;;;;;;;2.05;0.80;;;15.80;99.90;;;16.07;100.00;100983.84;5193762;28;20049;-52
2023/08/08 00:09:25;;;;;;;1.50;0.93;;;15.80;99.90;;;16.04;100.00;100974.19;5201364;28;20061;-51
2023/08/08 00:11:58;;;;;;;1.38;0.75;;;15.80;99.90;;;16.02;100.00;100975.88;5193528;28;20053;-52
2023/08/08 00:14:30;;;;;;;1.23;0.98;;;15.80;99.90;;;16.01;100.00;100969.75;5192392;28;20511;-53
2023/08/08 00:17:03;;;;;;;1.27;0.90;;;15.80;99.90;;;16.01;100.00;100975.00;5195504;28;20119;-52
2023/08/08 00:19:35;;;;;;;0.95;0.73;;;15.80;99.90;;;15.98;100.00;100963.56;5201952;28;20048;-51
2023/08/08 00:22:08;;;;;;;2.13;1.10;;;15.80;99.90;;;15.97;100.00;100965.31;5186908;28;20085;-54
2023/08/08 00:24:42;;;;;;;1.88;1.00;;;15.80;99.90;;;15.92;100.00;100964.34;5184164;28;20502;-52
2023/08/08 00:27:14;;;;;;;1.60;0.98;;;15.70;99.90;;;15.88;100.00;100952.00;5201845;28;20065;-52
2023/08/08 00:29:47;;;;;;;1.55;1.08;;;15.70;99.90;;;15.87;100.00;100958.13;5193500;28;20061;-52
2023/08/08 00:32:20;;;;;;;1.75;0.93;;;15.70;99.90;;;15.85;100.00;100956.34;5201571;28;20406;-51
2023/08/08 00:34:52;;;;;;;1.55;1.10;;;15.60;99.90;;;15.82;100.00;100962.44;5181225;28;20050;-51
2023/08/08 00:37:24;;;;;;;1.20;0.82;;;15.60;99.90;;;15.80;100.00;100969.41;5181026;28;20054;-55
2023/08/08 00:39:58;;;;;;;1.92;0.93;;;15.60;99.90;;;15.77;100.00;100964.09;5181211;28;20046;-52
2023/08/08 00:42:35;;;;;;;1.10;1.00;;;15.50;99.90;;;15.75;100.00;100955.31;5182278;28;20073;-52
2023/08/08 00:45:10;;;;;;;1.02;0.70;;;15.50;99.90;;;15.73;100.00;100957.03;5193155;28;20059;-55
2023/08/08 00:47:42;;;;;;;2.50;1.00;;;15.50;99.90;;;15.72;100.00;100945.66;5201193;28;20053;-52
2023/08/08 00:50:15;;;;;;;1.40;1.00;;;15.50;99.90;;;15.69;100.00;100944.69;5194133;28;20056;-55
2023/08/08 00:52:48;;;;;;;1.20;0.95;;;15.50;99.90;;;15.68;100.00;100942.94;5192432;28;20045;-52
2023/08/08 00:55:24;;;;;;;1.30;1.00;;;15.50;99.90;;;15.65;100.00;100948.16;5193317;28;20049;-52
2023/08/08 00:57:57;;;;;;;1.58;0.82;;;15.50;99.90;;;15.61;100.00;100944.53;5185491;28;20037;-51
2023/08/08 01:00:29;;;;;;;2.17;1.00;;;15.40;99.90;;;15.58;100.00;100946.22;5201638;28;20038;-56
2023/08/08 01:03:02;;;;;;;3.22;1.00;;;15.40;99.90;;;15.57;100.00;100944.44;5195131;28;20049;-53
2023/08/08 01:05:41;;;;;;;1.05;0.90;;;15.30;99.90;;;15.54;100.00;100949.66;5190074;28;20081;-52
2023/08/08 01:08:20;;;;;;;1.15;0.85;;;15.40;99.90;;;15.51;100.00;100944.34;5200972;28;20049;-54
2023/08/08 01:10:54;;;;;;;1.17;0.98;;;15.30;99.90;;;15.46;100.00;100947.81;5200806;28;20083;-51
2023/08/08 01:13:32;;;;;;;0.93;0.88;;;15.30;99.90;;;15.42;100.00;100951.22;5201064;28;20067;-52
2023/08/08 01:16:06;;;;;;;1.20;1.00;;;15.20;99.90;;;15.38;100.00;100949.38;5195781;28;20048;-52
2023/08/08 01:18:40;;;;;;;2.75;1.38;;;15.20;99.90;;;15.36;100.00;100950.22;5190357;28;20085;-53
2023/08/08 01:21:12;;;;;;;1.90;1.10;;;15.20;99.90;;;15.34;100.00;100951.94;5202891;28;20529;-53
2023/08/08 01:23:50;;;;;;;1.83;1.08;;;15.10;99.90;;;15.31;100.00;100942.25;5207644;28;20060;-52
2023/08/08 01:26:25;;;;;;;1.40;0.90;;;15.10;99.90;;;15.28;100.00;100947.47;5207797;28;20517;-52
2023/08/08 01:28:57;;;;;;;0.93;0.82;;;15.10;99.90;;;15.25;100.00;100947.41;5191547;28;20045;-52
2023/08/08 01:31:30;;;;;;;1.77;0.98;;;15.10;99.90;;;15.23;100.00;100953.50;5199307;28;20048;-51
2023/08/08 01:34:02;;;;;;;3.10;1.02;;;15.00;99.90;;;15.21;100.00;100950.84;5207675;28;20060;-51
2023/08/08 01:36:41;;;;;;;1.30;0.88;;;15.00;99.90;;;15.18;100.00;100945.53;5199374;28;20403;-55
2023/08/08 01:39:22;;;;;;;2.08;1.08;;;15.00;99.90;;;15.15;100.00;100940.22;5200731;28;20045;-52
2023/08/08 01:41:57;;;;;;;1.05;0.98;;;15.00;99.90;;;15.13;100.00;100939.31;5200458;28;20045;-56
2023/08/08 01:44:31;;;;;;;1.40;1.30;;;14.90;99.90;;;15.12;100.00;100940.16;5207618;28;20079;-52
2023/08/08 01:47:03;;;;;;;1.50;0.93;;;14.90;99.90;;;15.10;100.00;100936.63;5207299;28;20059;-56
2023/08/08 01:49:36;;;;;;;2.03;1.00;;;14.90;99.90;;;15.07;100.00;100931.34;5199283;28;20045;-52
2023/08/08 01:52:08;;;;;;;1.30;0.93;;;14.90;99.90;;;15.05;100.00;100930.38;5201735;28;20077;-51
2023/08/08 01:54:43;;;;;;;1.70;1.02;;;14.90;99.90;;;15.04;100.00;100928.63;5188782;28;20037;-51
2023/08/08 01:57:19;;;;;;;1.38;1.02;;;14.90;99.90;;;15.03;100.00;100927.75;5199122;28;20220;-54
2023/08/08 01:59:51;;;;;;;1.20;0.93;;;14.80;99.90;;;15.02;100.00;100933.84;5190985;28;20052;-55
2023/08/08 02:02:24;;;;;;;1.55;0.93;;;14.80;99.90;;;15.00;100.00;100934.69;5191364;28;20108;-53
2023/08/08 02:04:56;;;;;;;1.60;1.13;;;14.80;99.90;;;14.97;100.00;100939.88;5198941;28;20052;-53
2023/08/08 02:07:28;;;;;;;1.08;0.82;;;14.80;99.90;;;14.92;100.00;100932.78;5207325;28;20065;-52
2023/08/08 02:10:01;;;;;;;2.00;1.00;;;14.80;99.90;;;14.90;100.00;100939.75;5191170;28;20041;-52
2023/08/08 02:12:38;;;;;;;1.73;1.02;;;14.70;99.90;;;14.87;100.00;100942.34;5208716;28;20095;-52
2023/08/08 02:15:10;;;;;;;1.10;0.77;;;14.70;99.90;;;14.86;100.00;100937.03;5199239;28;20048;-54
2023/08/08 02:17:43;;;;;;;1.92;1.15;;;14.70;99.90;;;14.85;100.00;100933.53;5206730;28;20057;-54
2023/08/08 02:20:17;;;;;;;1.15;1.05;;;14.60;99.90;;;14.82;100.00;100922.97;5200646;28;20042;-53
2023/08/08 02:22:54;;;;;;;1.55;1.00;;;14.60;99.90;;;14.81;100.00;100915.97;5202861;28;20081;-52
2023/08/08 02:25:26;;;;;;;1.27;1.10;;;14.60;99.90;;;14.80;100.00;100916.81;5202667;28;20049;-52
2023/08/08 02:28:00;;;;;;;1.90;1.23;;;14.60;99.90;;;14.79;100.00;100915.03;5206753;28;20069;-56
2023/08/08 02:30:32;;;;;;;2.65;1.23;;;14.60;99.90;;;14.79;100.00;100914.16;5207025;28;20046;-52
2023/08/08 02:33:05;;;;;;;1.40;1.13;;;14.60;99.90;;;14.77;100.00;100911.50;5205820;28;20521;-56
2023/08/08 02:35:38;;;;;;;1.30;1.10;;;14.60;99.90;;;14.75;100.00;100907.97;5195913;28;20077;-51
2023/08/08 02:38:10;;;;;;;1.42;1.08;;;14.60;99.90;;;14.74;100.00;100910.56;5204230;28;20490;-50
2023/08/08 02:40:46;;;;;;;2.15;1.15;;;14.60;99.90;;;14.73;100.00;100900.91;5195437;28;20037;-51
2023/08/08 02:43:20;;;;;;;3.92;1.30;;;14.50;99.90;;;14.72;100.00;100907.00;5203686;28;20678;-51
2023/08/08 02:45:52;;;;;;;2.13;1.42;;;14.50;99.90;;;14.69;100.00;100904.34;5203189;28;20048;-51
2023/08/08 02:48:25;;;;;;;2.78;1.25;;;14.50;99.90;;;14.65;100.00;100896.41;5203340;28;20041;-51
2023/08/08 02:51:00;;;;;;;2.22;1.30;;;14.50;99.90;;;14.64;100.00;100894.63;5186773;28;20037;-55
2023/08/08 02:53:34;;;;;;;1.85;1.23;;;14.50;99.90;;;14.63;100.00;100902.47;5203247;28;20041;-52
2023/08/08 02:56:06;;;;;;;1.17;1.00;;;14.40;99.90;;;14.63;100.00;100891.97;5190537;28;20050;-52
2023/08/08 02:58:49;;;;;;;1.35;1.10;;;14.50;99.90;;;14.62;100.00;100898.09;5200816;28;20455;-52
2023/08/08 03:01:21;;;;;;;1.92;1.33;;;14.50;99.90;;;14.61;100.00;100888.47;5194935;28;20041;-52
2023/08/08 03:03:54;;;;;;;1.80;1.35;;;14.40;99.90;;;14.60;100.00;100886.66;5194758;28;20503;-52
2023/08/08 03:06:29;;;;;;;2.53;1.23;;;14.40;99.90;;;14.60;100.00;100897.16;5203193;28;20095;-54
2023/08/08 03:09:06;;;;;;;1.90;1.30;;;14.40;99.90;;;14.60;100.00;100889.28;5187033;28;20503;-52
2023/08/08 03:11:41;;;;;;;2.33;1.02;;;14.40;99.90;;;14.60;100.00;100881.41;5194827;28;20058;-52
2023/08/08 03:14:17;;;;;;;2.88;1.30;;;14.40;99.90;;;14.59;100.00;100874.41;5189350;28;20566;-53
2023/08/08 03:16:50;;;;;;;3.30;1.55;;;14.40;99.90;;;14.57;100.00;100870.88;5193166;28;20052;-51
2023/08/08 03:19:23;;;;;;;2.88;1.55;;;14.40;99.90;;;14.55;100.00;100862.09;5194702;28;20092;-54
2023/08/08 03:21:55;;;;;;;1.48;1.02;;;14.40;99.90;;;14.54;100.00;100860.31;5202676;28;20041;-51
2023/08/08 03:24:28;;;;;;;2.25;1.50;;;14.40;99.90;;;14.54;100.00;100863.84;5195236;28;20061;-52
2023/08/08 03:27:00;;;;;;;2.22;1.38;;;14.40;99.90;;;14.55;100.00;100864.72;5202250;28;20033;-51
2023/08/08 03:29:34;;;;;;;1.60;1.48;;;14.40;99.90;;;14.54;100.00;100865.56;5186928;28;20169;-50
2023/08/08 03:32:07;;;;;;;2.20;1.33;;;14.40;99.90;;;14.52;100.00;100868.16;5194898;28;20376;-51
2023/08/08 03:34:44;;;;;;;2.25;1.05;;;14.40;99.90;;;14.50;100.00;100867.25;5202476;28;20045;-51
2023/08/08 03:37:19;;;;;;;2.63;1.25;;;14.30;99.90;;;14.45;100.00;100860.97;5188882;28;20050;-50
2023/08/08 03:39:53;;;;;;;1.90;1.25;;;14.30;99.90;;;14.43;100.00;100869.69;5192837;28;20061;-52
2023/08/08 03:42:26;;;;;;;1.70;1.20;;;14.30;99.90;;;14.38;100.00;100874.81;5198304;28;20124;-52
2023/08/08 03:45:00;;;;;;;2.17;1.30;;;14.20;99.90;;;14.33;100.00;100877.34;5200989;28;20396;-51
2023/08/08 03:47:32;;;;;;;2.28;1.30;;;14.20;99.90;;;14.27;100.00;100881.56;5194561;28;20119;-52
2023/08/08 03:50:08;;;;;;;2.38;1.27;;;14.20;99.90;;;14.19;100.00;100873.56;5186231;28;20053;-52
2023/08/08 03:52:43;;;;;;;1.80;1.08;;;14.10;99.90;;;14.10;100.00;100874.25;5193380;28;20045;-52
2023/08/08 03:55:17;;;;;;;1.75;1.25;;;14.00;99.90;;;14.03;100.00;100876.72;5190287;28;20062;-52
2023/08/08 03:57:50;;;;;;;3.55;1.23;;;13.90;99.90;;;13.96;100.00;100869.56;5198256;28;20057;-54
2023/08/08 04:00:24;;;;;;;2.20;1.10;;;13.80;99.90;;;13.91;100.00;100863.34;5190004;28;20042;-52
2023/08/08 04:02:56;;;;;;;2.08;1.25;;;13.80;99.90;;;13.85;100.00;100864.06;5202348;28;20097;-52
2023/08/08 04:05:29;;;;;;;2.08;1.30;;;13.70;99.90;;;13.80;100.00;100874.44;5195136;28;20050;-52
2023/08/08 04:08:01;;;;;;;1.60;1.10;;;13.70;99.90;;;13.77;100.00;100878.75;5193225;28;20049;-51
2023/08/08 04:10:33;;;;;;;2.00;1.45;;;13.60;99.90;;;13.73;100.00;100883.00;5202186;28;20128;-52
2023/08/08 04:13:06;;;;;;;2.00;1.05;;;13.60;99.90;;;13.71;100.00;100881.22;5185443;28;20046;-51
2023/08/08 04:15:40;;;;;;;2.08;1.02;;;13.60;99.90;;;13.66;100.00;100883.72;5193255;28;20060;-58
2023/08/08 04:18:12;;;;;;;2.85;1.55;;;13.50;99.90;;;13.62;100.00;100874.00;5197186;28;20054;-55
2023/08/08 04:20:48;;;;;;;2.40;1.40;;;13.50;99.90;;;13.60;100.00;100875.72;5189604;28;20140;-55
2023/08/08 04:23:22;;;;;;;1.30;0.98;;;13.50;99.90;;;13.60;100.00;100870.47;5187672;28;20408;-51
2023/08/08 04:25:55;;;;;;;1.77;1.38;;;13.40;99.90;;;13.63;100.00;100875.81;5201980;28;20046;-50
2023/08/08 04:28:27;;;;;;;0.90;0.90;;;13.40;99.90;;;13.69;100.00;100870.72;5193516;28;20049;-53
2023/08/08 04:31:01;;;;;;;2.03;1.05;;;13.50;99.90;;;13.73;100.00;100872.53;5185566;28;20083;-53
2023/08/08 04:33:33;;;;;;;1.95;1.00;;;13.60;99.90;;;13.79;100.00;100880.53;5201889;28;20060;-53
2023/08/08 04:36:06;;;;;;;1.80;1.13;;;13.60;99.90;;;13.83;100.00;100885.00;5190103;28;20097;-52
2023/08/08 04:38:39;;;;;;;1.67;1.13;;;13.70;99.90;;;13.89;100.00;100885.97;5189149;28;20157;-51
2023/08/08 04:41:11;;;;;;;3.10;1.00;;;13.70;99.90;;;13.93;100.00;100885.19;5189324;28;20046;-51
2023/08/08 04:43:43;;;;;;;2.33;1.27;;;13.70;99.90;;;13.98;100.00;100883.56;5181517;28;20532;-55
2023/08/08 04:46:17;;;;;;;1.17;0.90;;;13.80;99.90;;;14.00;100.00;100881.88;5196628;28;20458;-53
2023/08/08 04:48:53;;;;;;;2.80;1.10;;;13.80;99.90;;;14.01;100.00;100889.75;5182048;28;20074;-56
2023/08/08 04:51:25;;;;;;;1.20;1.08;;;13.80;99.90;;;14.02;100.00;100886.31;5201355;28;20407;-52
2023/08/08 04:53:57;;;;;;;1.30;1.10;;;13.80;99.90;;;14.06;100.00;100892.50;5185104;28;20522;-51
2023/08/08 04:56:30;;;;;;;1.17;1.05;;;13.90;99.90;;;14.05;100.00;100882.88;5200827;28;20095;-55
2023/08/08 04:59:02;;;;;;;1.20;1.02;;;13.90;99.90;;;14.06;100.00;100871.53;5193016;28;20050;-53
2023/08/08 05:01:36;;;;;;;1.90;1.02;;;13.90;99.90;;;14.10;100.00;100881.22;5201061;28;20462;-53
2023/08/08 05:04:08;;;;;;;1.63;1.00;;;13.90;99.90;;;14.14;100.00;100896.16;5193085;28;20514;-55
2023/08/08 05:06:41;;;;;;;1.25;0.90;;;14.00;99.90;;;14.16;100.00;100884.00;5192870;28;20045;-54
2023/08/08 05:09:16;;;;;;;1.20;0.93;;;14.00;99.90;;;14.20;100.00;100880.56;5180840;28;20045;-53
2023/08/08 05:11:48;;;;;;;2.40;1.17;;;14.00;99.90;;;14.25;100.00;100873.69;5188763;28;20053;-55
2023/08/08 05:14:21;;;;;;;1.80;1.10;;;14.10;99.90;;;14.31;100.00;100876.44;5194125;28;20411;-54
2023/08/08 05:16:55;;;;;;;1.77;1.13;;;14.10;99.90;;;14.39;100.00;100872.22;5199501;28;20057;-51
2023/08/08 05:19:27;;;;;;;2.50;1.08;;;14.20;99.90;;;14.48;100.00;100883.81;5186875;28;20073;-53
2023/08/08 05:22:00;;;;;;;2.78;1.20;;;14.30;99.90;;;14.56;100.00;100874.34;5200874;28;20041;-53
2023/08/08 05:24:33;;;;;;;1.92;1.10;;;14.40;99.90;;;14.63;100.00;100871.00;5192874;28;20504;-51
2023/08/08 05:27:06;;;;;;;2.08;1.30;;;14.40;99.90;;;14.70;100.00;100872.88;5192698;28;20045;-55
2023/08/08 05:29:39;;;;;;;1.88;1.27;;;14.50;99.90;;;14.75;100.00;100868.59;5185578;28;20068;-52
2023/08/08 05:32:13;;;;;;;3.03;1.08;;;14.50;99.90;;;14.80;100.00;100864.34;5200468;28;20046;-56
2023/08/08 05:34:45;;;;;;;1.65;1.17;;;14.60;99.90;;;14.83;100.00;100867.00;5192565;28;20060;-52
2023/08/08 05:37:17;;;;;;;1.70;1.02;;;14.60;99.90;;;14.85;100.00;100867.91;5192671;28;20050;-54
2023/08/08 05:39:49;;;;;;;1.85;1.23;;;14.70;99.90;;;14.90;100.00;100875.88;5200537;28;20049;-55
2023/08/08 05:42:22;;;;;;;3.42;1.30;;;14.70;99.90;;;14.92;100.00;100869.78;5200318;28;20053;-52
2023/08/08 05:44:57;;;;;;;2.40;1.20;;;14.70;99.90;;;14.96;100.00;100876.00;5192529;28;20051;-51
2023/08/08 05:47:31;;;;;;;2.83;1.25;;;14.80;99.90;;;14.98;100.00;100874.28;5192626;28;20457;-55
2023/08/08 05:50:04;;;;;;;2.47;1.30;;;14.80;99.90;;;15.04;100.00;100870.88;5200401;28;20053;-51
2023/08/08 05:52:36;;;;;;;2.58;1.33;;;14.80;99.90;;;15.08;100.00;100875.34;5200517;28;20034;-51
2023/08/08 05:55:09;;;;;;;3.20;1.42;;;14.90;99.90;;;15.11;100.00;100876.25;5181403;28;20054;-51
2023/08/08 05:57:42;;;;;;;2.10;1.23;;;14.90;99.90;;;15.15;100.00;100856.22;5187904;28;20506;-50
2023/08/08 06:00:15;;;;;;;2.90;1.40;;;14.90;99.90;;;15.19;100.00;100863.25;5192271;28;20045;-51
2023/08/08 06:02:49;;;;;;;3.42;1.60;;;15.00;99.90;;;15.25;100.00;100865.09;5200327;28;20073;-51
2023/08/08 06:05:24;;;;;;;3.30;1.40;;;15.00;99.90;;;15.29;100.00;100872.19;5200720;28;20116;-51
2023/08/08 06:07:56;;;;;;;2.40;1.48;;;15.10;99.90;;;15.33;100.00;100871.41;5191216;28;20128;-51
2023/08/08 06:10:28;;;;;;;3.45;1.40;;;15.10;99.90;;;15.38;100.00;100875.84;5197757;28;20051;-52
2023/08/08 06:13:01;;;;;;;3.13;1.55;;;15.20;99.90;;;15.43;100.00;100871.56;5196326;28;20076;-53
2023/08/08 06:15:33;;;;;;;2.13;1.33;;;15.20;99.90;;;15.50;100.00;100879.53;5200451;28;20045;-51
2023/08/08 06:18:07;;;;;;;2.40;1.33;;;15.20;99.90;;;15.55;100.00;100873.50;5192219;28;20064;-50
2023/08/08 06:20:40;;;;;;;2.33;1.50;;;15.30;99.90;;;15.60;100.00;100878.84;5192048;28;20407;-50
2023/08/08 06:23:12;;;;;;;6.05;1.67;;;15.40;99.90;;;15.65;100.00;100878.09;5195645;28;20044;-50
2023/08/08 06:25:45;;;;;;;2.35;1.42;;;15.40;99.90;;;15.71;100.00;100879.88;5204137;28;20060;-51
2023/08/08 06:28:17;;;;;;;3.30;1.50;;;15.50;99.90;;;15.79;100.00;100882.66;5200352;28;20050;-50
2023/08/08 06:30:49;;;;;;;3.30;1.65;;;15.50;99.90;;;15.83;100.00;100880.09;5200320;28;20506;-53
2023/08/08 06:33:23;;;;;;;3.20;1.60;;;15.60;99.90;;;15.89;100.00;100895.94;5204089;28;20041;-51
2023/08/08 06:35:57;;;;;;;3.25;1.70;;;15.60;99.90;;;15.94;100.00;100891.66;5187657;28;20056;-54
2023/08/08 06:38:33;;;;;;;4.95;1.88;;;15.70;99.90;;;16.01;100.00;100895.25;5198104;28;20272;-50
2023/08/08 06:41:09;;;;;;;2.95;1.75;;;15.70;99.90;;;16.05;100.00;100885.66;5201928;28;20140;-49
2023/08/08 06:43:41;;;;;;;3.55;1.80;;;15.80;99.90;;;16.12;100.00;100890.16;5188404;28;20069;-50
2023/08/08 06:46:13;;;;;;;3.28;1.33;;;15.80;99.90;;;16.18;100.00;100880.59;5183539;28;20422;-49
2023/08/08 06:48:49;;;;;;;3.25;1.80;;;15.90;99.90;;;16.23;100.00;100891.16;5199143;28;20076;-49
2023/08/08 06:51:25;;;;;;;3.47;2.10;;;16.00;99.90;;;16.32;100.00;100880.78;5199219;28;20048;-49
2023/08/08 06:53:57;;;;;;;3.08;2.08;;;16.00;99.90;;;16.38;100.00;100870.31;5199501;28;20057;-50
2023/08/08 06:56:30;;;;;;;4.63;1.88;;;16.10;99.90;;;16.44;100.00;100880.94;5182722;28;20503;-50
2023/08/08 06:59:05;;;;;;;3.15;1.50;;;16.10;99.90;;;16.49;100.00;100866.06;5196495;28;20448;-49
2023/08/08 07:01:37;;;;;;;3.17;1.73;;;16.20;99.90;;;16.54;100.00;100874.00;5188468;28;20050;-50
2023/08/08 07:04:11;;;;;;;3.10;1.85;;;16.20;99.90;;;16.62;100.00;100884.63;5183626;28;20116;-50
2023/08/08 07:06:44;;;;;;;4.72;2.00;;;16.30;99.90;;;16.72;100.00;100876.00;5198229;28;20053;-49
2023/08/08 07:09:18;;;;;;;;;;;16.40;99.90;;;16.94;100.00;100871.84;5192218;28;20119;-50
2023/08/08 07:11:50;;;;;;;2.83;1.60;;;16.50;99.90;;;17.06;100.00;100878.13;5199351;28;19921;-49
2023/08/08 07:14:23;;;;;;;6.13;1.90;;;16.70;99.90;;;17.32;100.00;100873.09;5187469;28;20056;-52
2023/08/08 07:16:55;;;;;;;4.30;1.85;;;16.90;99.90;;;17.66;100.00;100861.91;5201257;28;20052;-52
2023/08/08 07:19:32;;;;;;;5.13;2.17;;;17.10;99.90;;;18.04;100.00;100863.06;5197032;28;20463;-52
2023/08/08 07:22:05;;;;;;;5.78;1.80;;;17.40;99.90;;;18.57;100.00;100864.19;5199662;28;20545;-51
2023/08/08 07:24:38;;;;;;;6.05;1.95;;;17.90;99.90;;;19.19;100.00;100860.81;5202229;28;20056;-50
2023/08/08 07:27:11;;;;;;;4.75;1.70;;;18.40;99.90;;;19.60;100.00;100863.47;5195684;28;20050;-50
2023/08/08 07:29:43;;;;;;;3.63;1.40;;;18.80;99.90;;;19.81;100.00;100861.69;5202014;28;20046;-51
2023/08/08 07:32:16;;;;;;;3.42;1.50;;;19.10;99.90;;;20.01;100.00;100870.44;5201903;28;20049;-53
2023/08/08 07:34:49;;;;;;;3.28;1.40;;;19.30;99.90;;;20.02;100.00;100866.94;5202173;28;20056;-53
2023/08/08 07:37:25;;;;;;;4.90;1.48;;;19.40;99.90;;;19.92;100.00;100865.19;5201947;28;20053;-52
2023/08/08 07:39:57;;;;;;;3.13;1.33;;;19.40;99.90;;;19.87;100.00;100865.19;5201826;28;20045;-50
2023/08/08 07:42:29;;;;;;;2.80;1.55;;;19.30;99.90;;;19.83;100.00;100859.94;5201809;28;20037;-50
2023/08/08 07:45:02;;;;;;;3.95;1.48;;;19.30;99.90;;;19.69;100.00;100862.56;5200505;28;20050;-49
2023/08/08 07:47:34;;;;;;;4.38;1.60;;;19.20;99.90;;;19.54;100.00;100855.50;5194912;28;20530;-48
2023/08/08 07:50:09;;;;;;;3.20;1.40;;;19.10;99.90;;;19.46;100.00;100859.94;5195764;28;20057;-51
2023/08/08 07:52:42;;;;;;;3.47;1.58;;;19.10;99.90;;;19.42;100.00;100852.88;5200149;28;20052;-50
2023/08/08 07:55:14;;;;;;;3.92;1.35;;;19.00;99.90;;;19.35;100.00;100861.69;5199154;28;20053;-52
2023/08/08 07:57:47;;;;;;;5.50;1.73;;;18.90;99.90;;;19.47;100.00;100853.75;5197692;28;20049;-54
2023/08/08 08:00:20;;;;;;;3.83;1.60;;;19.00;99.90;;;19.54;100.00;100863.44;5199140;28;20489;-52
2023/08/08 08:02:53;;;;;;;4.57;1.58;;;19.10;99.90;;;19.51;100.00;100863.47;5200374;28;20392;-50
2023/08/08 08:05:26;;;;;;;5.32;1.63;;;19.10;99.90;;;19.47;100.00;100866.97;5213207;28;20078;-53
2023/08/08 08:07:59;;;;;;;4.85;1.88;;;19.00;99.90;;;19.40;100.00;100862.56;5217457;28;20068;-56
2023/08/08 08:10:31;;;;;;;3.42;1.88;;;19.00;99.90;;;19.37;100.00;100870.53;5201289;28;20041;-53
2023/08/08 08:13:04;;;;;;;3.83;1.75;;;19.00;99.90;;;19.25;100.00;100864.34;5201033;28;20392;-51
2023/08/08 08:15:37;;;;;;;2.25;1.60;;;18.90;99.90;;;19.16;100.00;100866.97;5200986;28;20529;-50
2023/08/08 08:18:11;;;;;;;5.57;1.90;;;18.80;99.90;;;19.18;100.00;100867.00;5199264;28;20530;-50
2023/08/08 08:20:45;;;;;;;5.93;1.92;;;18.80;99.90;;;19.34;100.00;100862.56;5200634;28;20053;-51
2023/08/08 08:23:20;;;;;;;4.28;1.80;;;18.90;99.90;;;19.77;100.00;100856.41;5200579;28;20411;-51
2023/08/08 08:25:52;;;;;;;5.07;2.25;;;19.10;99.90;;;20.21;100.00;100854.50;5201315;28;20042;-53
2023/08/08 08:28:26;;;;;;;3.10;2.17;;;19.40;99.90;;;20.41;100.00;100859.72;5189992;28;20045;-51
2023/08/08 08:30:59;;;;;;;3.35;2.33;;;19.60;99.90;;;20.56;100.00;100862.34;5191835;28;20510;-51
2023/08/08 08:33:31;;;;;;;5.22;2.05;;;19.70;99.90;;;21.19;98.79;100851.31;5200419;28;20037;-51
2023/08/08 08:36:05;;;;;;;3.67;1.70;;;20.00;99.90;;;22.18;95.39;100863.72;5196629;28;20053;-52
2023/08/08 08:38:38;;;;;;;2.65;1.63;;;20.60;99.90;;;22.64;91.85;100850.72;5199853;28;20581;-51
2023/08/08 08:41:17;;;;;;;4.00;1.77;;;20.90;99.90;;;22.37;90.38;100851.09;5197163;28;20468;-54
2023/08/08 08:43:51;;;;;;;3.45;1.80;;;21.00;99.90;;;22.45;91.52;100851.84;5200474;28;20038;-51
2023/08/08 08:46:27;;;;;;;3.17;1.60;;;21.10;99.90;;;23.25;89.95;100857.78;5197179;28;20410;-51
2023/08/08 08:49:00;;;;;;;3.55;1.83;;;21.50;99.90;;;24.04;86.95;100858.16;5195957;28;20044;-53
2023/08/08 08:51:38;;;;;;;4.40;1.80;;;22.10;99.90;;;24.76;84.22;100861.13;5192306;28;20061;-55
2023/08/08 08:54:11;;;;;;;6.32;2.08;;;22.70;99.90;;;25.03;81.80;100865.81;5197510;28;20537;-51
2023/08/08 08:56:44;;;;;;;4.03;2.00;;;23.00;98.70;;;24.93;80.64;100864.28;5200756;28;20045;-51
2023/08/08 08:59:16;;;;;;;3.78;1.80;;;23.20;97.80;;;24.39;79.41;100867.28;5200033;28;20049;-52
2023/08/08 09:01:49;;;;;;;4.97;2.20;;;22.90;96.60;;;23.69;80.83;100863.28;5200147;28;20052;-50
2023/08/08 09:04:23;;;;;;;7.00;2.38;;;22.60;96.50;;;23.05;83.24;100874.97;5200647;28;20045;-53
2023/08/08 09:06:57;;;;;;;3.05;1.67;;;22.20;97.10;;;22.51;84.15;100862.41;5200361;28;20529;-52
2023/08/08 09:09:33;;;;;;;3.15;1.80;;;21.70;97.30;;;22.05;85.41;100857.63;5198942;28;20071;-53
2023/08/08 09:12:07;;;;;;;6.70;2.33;;;21.40;97.60;;;21.65;86.45;100859.81;5199779;28;20073;-51
2023/08/08 09:14:41;;;;;;;6.03;2.35;;;21.10;98.00;;;21.27;88.24;100855.69;5200523;28;20049;-50
2023/08/08 09:17:15;;;;;;;5.43;2.10;;;20.70;98.60;;;21.02;89.45;100854.13;5200301;28;20103;-50
2023/08/08 09:19:47;;;;;;;3.70;1.92;;;20.50;99.00;;;20.92;89.30;100847.13;5199903;28;20053;-50
2023/08/08 09:22:21;;;;;;;3.00;1.85;;;20.40;99.10;;;20.90;89.95;100848.91;5199808;28;20041;-50
2023/08/08 09:24:54;;;;;;;4.18;1.92;;;20.30;99.40;;;20.98;89.69;100853.25;5200473;28;20423;-50
2023/08/08 09:27:26;;;;;;;4.47;1.80;;;20.30;99.40;;;20.99;88.98;100859.41;5199868;28;20041;-50
2023/08/08 09:29:58;;;;;;;4.65;2.00;;;20.40;99.20;;;20.89;88.78;100857.75;5193489;28;20045;-54
2023/08/08 09:32:32;;;;;;;4.38;2.05;;;20.30;99.10;;;20.76;89.93;100849.00;5199065;28;20045;-51
2023/08/08 09:35:09;;;;;;;4.20;1.80;;;20.20;99.40;;;20.74;90.90;100854.31;5199067;28;20052;-46
2023/08/08 09:37:43;;;;;;;3.58;2.20;;;20.20;99.80;;;20.76;90.46;100852.53;5191834;28;20049;-52
2023/08/08 09:40:15;;;;;;;3.83;1.83;;;20.20;99.70;;;20.79;90.47;100847.19;5198817;28;20096;-51
2023/08/08 09:42:48;;;;;;;2.80;1.63;;;20.20;99.70;;;20.81;90.45;100844.56;5200622;28;20200;-49
2023/08/08 09:45:22;;;;;;;3.30;1.80;;;20.20;99.90;;;20.82;90.28;100841.88;5197415;28;20045;-55
2023/08/08 09:47:55;;;;;;;3.92;1.88;;;20.20;99.60;;;20.85;89.95;100847.16;5199737;28;20045;-51
2023/08/08 09:50:29;;;;;;;5.05;1.92;;;20.30;99.50;;;20.85;90.17;100836.56;5210043;28;20041;-51
2023/08/08 09:53:04;;;;;;;6.10;1.83;;;20.30;99.50;;;20.91;90.56;100845.34;5203708;28;20048;-52
2023/08/08 09:55:37;;;;;;;2.88;1.73;;;20.30;99.80;;;21.00;90.03;100840.00;5213817;28;20133;-51
2023/08/08 09:58:10;;;;;;;3.65;1.80;;;20.40;99.50;;;21.18;88.99;100853.09;5209500;28;20060;-50
2023/08/08 10:00:42;;;;;;;2.22;1.73;;;20.50;99.40;;;21.24;89.18;100861.00;5203746;28;20049;-50
2023/08/08 10:03:15;;;;;;;3.83;1.67;;;20.60;99.30;;;21.27;89.07;100862.78;5202323;28;20056;-50
2023/08/08 10:05:47;;;;;;;2.13;1.83;;;20.60;99.20;;;21.33;89.56;100855.69;5198288;28;20048;-50
2023/08/08 10:08:22;;;;;;;2.05;1.65;;;20.70;99.40;;;21.35;88.34;100850.34;5201131;28;20162;-49
2023/08/08 10:10:54;;;;;;;;;;;20.70;98.90;;;21.39;88.38;100854.75;5204231;28;20052;-55
2023/08/08 10:13:29;;;;;;;5.60;1.83;;;20.80;98.90;;;21.53;88.00;100851.97;5203482;28;19925;-51
2023/08/08 10:16:09;;;;;;;4.43;1.67;;;20.90;98.70;;;21.65;86.49;100846.56;5203991;28;20049;-50
2023/08/08 10:18:42;;;;;;;3.53;1.95;;;21.00;98.30;;;21.77;86.05;100849.06;5196206;28;20087;-50
2023/08/08 10:21:14;;;;;;;5.82;2.40;;;21.10;98.10;;;21.90;85.36;100858.66;5200348;28;20054;-50
2023/08/08 10:24:02;;;;;;;3.33;1.83;;;21.20;97.80;;;22.01;85.47;100855.00;5195179;28;20529;-54
2023/08/08 10:26:35;;;;;;;2.78;1.33;;;21.30;97.70;;;22.16;84.30;100845.13;5203105;28;20056;-50
2023/08/08 10:29:08;;;;;;;2.72;1.40;;;21.40;97.30;;;22.41;84.42;100856.31;5196980;28;20549;-50
2023/08/08 10:31:40;;;;;;;3.40;2.10;;;21.60;97.30;;;22.62;84.18;100862.25;5202957;28;20037;-50
2023/08/08 10:34:12;;;;;;;2.53;1.45;;;21.80;97.20;;;22.66;83.92;100866.63;5202879;28;20041;-50